<?xml version="1.0" encoding="windows-1252"?>
<gpx xmlns="http://www.topografix.com/GPX/1/0" creator="GlobalMotion" version="1.0" xmlns:xsi="http://www.w3.org/2001/XMLSchema-instance" xsi:schemaLocation="http://www.topografix.com/GPX/1/0 http://www.topografix.com/GPX/1/0/gpx.xsd">
	<name>BGO-TRD-PRUNE.gpx</name>
	<desc>Export from Prune</desc>
<wpt lat="60.17066" lon="5.05483000000004"><ele>0</ele><name>OK</name></wpt>
<wpt lat="61.28584" lon="4.63314000000003"><ele>0</ele><name>OK</name></wpt>
<wpt lat="62.81094" lon="6.69551999999999"><ele>0</ele><name>OK</name></wpt>
<wpt lat="63.72512" lon="9.58463000000006"><ele>0</ele><name>OK</name></wpt>
	<trk><name>BGO-TRD-PRUNE.gpx</name><number>1</number><trkseg>
<trkpt lat="60.170680000" lon="5.054830000">
  <ele>0.000000</ele>
  <time>2011-06-24T23:30:27Z</time>
</trkpt>
<trkpt lat="60.170660000" lon="5.054850000">
  <ele>0.000000</ele>
  <time>2011-06-24T23:40:06Z</time>
</trkpt>
<trkpt lat="60.170700000" lon="5.054740000">
  <ele>0.000000</ele>
  <time>2011-06-24T23:49:48Z</time>
</trkpt>
<trkpt lat="60.170670000" lon="5.054740000">
  <ele>0.000000</ele>
  <time>2011-06-24T23:59:50Z</time>
</trkpt>
<trkpt lat="60.166860000" lon="5.057170000">
  <ele>0.000000</ele>
  <time>2011-06-25T00:09:49Z</time>
</trkpt>
<trkpt lat="60.161190000" lon="5.077080000">
  <ele>0.000000</ele>
  <time>2011-06-25T00:19:45Z</time>
</trkpt>
<trkpt lat="60.165910000" lon="5.105600000">
  <ele>0.000000</ele>
  <time>2011-06-25T00:29:54Z</time>
</trkpt>
<trkpt lat="60.174080000" lon="5.135080000">
  <ele>0.000000</ele>
  <time>2011-06-25T00:39:47Z</time>
</trkpt>
<trkpt lat="60.184980000" lon="5.159350000">
  <ele>0.000000</ele>
  <time>2011-06-25T00:49:44Z</time>
</trkpt>
<trkpt lat="60.195940000" lon="5.173400000">
  <ele>0.000000</ele>
  <time>2011-06-25T00:59:46Z</time>
</trkpt>
<trkpt lat="60.206450000" lon="5.182440000">
  <ele>0.000000</ele>
  <time>2011-06-25T01:10:01Z</time>
</trkpt>
<trkpt lat="60.215830000" lon="5.180550000">
  <ele>0.000000</ele>
  <time>2011-06-25T01:19:45Z</time>
</trkpt>
<trkpt lat="60.223590000" lon="5.173750000">
  <ele>0.000000</ele>
  <time>2011-06-25T01:29:42Z</time>
</trkpt>
<trkpt lat="60.234510000" lon="5.164300000">
  <ele>0.000000</ele>
  <time>2011-06-25T01:39:47Z</time>
</trkpt>
<trkpt lat="60.246600000" lon="5.162590000">
  <ele>0.000000</ele>
  <time>2011-06-25T01:49:40Z</time>
</trkpt>
<trkpt lat="60.258940000" lon="5.163060000">
  <ele>0.000000</ele>
  <time>2011-06-25T01:59:43Z</time>
</trkpt>
<trkpt lat="60.278210000" lon="5.178640000">
  <ele>0.000000</ele>
  <time>2011-06-25T02:13:00Z</time>
</trkpt>
<trkpt lat="60.288360000" lon="5.188340000">
  <ele>0.000000</ele>
  <time>2011-06-25T02:19:45Z</time>
</trkpt>
<trkpt lat="60.303480000" lon="5.197030000">
  <ele>0.000000</ele>
  <time>2011-06-25T02:29:41Z</time>
</trkpt>
<trkpt lat="60.319550000" lon="5.194580000">
  <ele>0.000000</ele>
  <time>2011-06-25T02:39:41Z</time>
</trkpt>
<trkpt lat="60.334880000" lon="5.189040000">
  <ele>0.000000</ele>
  <time>2011-06-25T02:49:40Z</time>
</trkpt>
<trkpt lat="60.347720000" lon="5.174020000">
  <ele>0.000000</ele>
  <time>2011-06-25T03:00:10Z</time>
</trkpt>
<trkpt lat="60.361710000" lon="5.169350000">
  <ele>0.000000</ele>
  <time>2011-06-25T03:09:39Z</time>
</trkpt>
<trkpt lat="60.375840000" lon="5.164750000">
  <ele>0.000000</ele>
  <time>2011-06-25T03:19:39Z</time>
</trkpt>
<trkpt lat="60.391470000" lon="5.155160000">
  <ele>0.000000</ele>
  <time>2011-06-25T03:29:38Z</time>
</trkpt>
<trkpt lat="60.399730000" lon="5.128410000">
  <ele>0.000000</ele>
  <time>2011-06-25T03:39:44Z</time>
</trkpt>
<trkpt lat="60.406980000" lon="5.099720000">
  <ele>0.000000</ele>
  <time>2011-06-25T03:49:55Z</time>
</trkpt>
<trkpt lat="60.417290000" lon="5.069010000">
  <ele>0.000000</ele>
  <time>2011-06-25T04:01:30Z</time>
</trkpt>
<trkpt lat="60.425730000" lon="5.054930000">
  <ele>0.000000</ele>
  <time>2011-06-25T04:09:42Z</time>
</trkpt>
<trkpt lat="60.437600000" lon="5.042040000">
  <ele>0.000000</ele>
  <time>2011-06-25T04:19:35Z</time>
</trkpt>
<trkpt lat="60.450510000" lon="5.028240000">
  <ele>0.000000</ele>
  <time>2011-06-25T04:29:32Z</time>
</trkpt>
<trkpt lat="60.464460000" lon="5.011630000">
  <ele>0.000000</ele>
  <time>2011-06-25T04:40:25Z</time>
</trkpt>
<trkpt lat="60.476360000" lon="4.999400000">
  <ele>0.000000</ele>
  <time>2011-06-25T04:49:49Z</time>
</trkpt>
<trkpt lat="60.489200000" lon="4.985050000">
  <ele>0.000000</ele>
  <time>2011-06-25T04:59:39Z</time>
</trkpt>
<trkpt lat="60.502420000" lon="4.967710000">
  <ele>0.000000</ele>
  <time>2011-06-25T05:09:39Z</time>
</trkpt>
<trkpt lat="60.515170000" lon="4.948680000">
  <ele>0.000000</ele>
  <time>2011-06-25T05:19:50Z</time>
</trkpt>
<trkpt lat="60.527460000" lon="4.931900000">
  <ele>0.000000</ele>
  <time>2011-06-25T05:30:05Z</time>
</trkpt>
<trkpt lat="60.541070000" lon="4.913230000">
  <ele>0.000000</ele>
  <time>2011-06-25T05:40:10Z</time>
</trkpt>
<trkpt lat="60.554840000" lon="4.900590000">
  <ele>0.000000</ele>
  <time>2011-06-25T05:49:30Z</time>
</trkpt>
<trkpt lat="60.569760000" lon="4.887670000">
  <ele>0.000000</ele>
  <time>2011-06-25T05:59:30Z</time>
</trkpt>
<trkpt lat="60.584640000" lon="4.875370000">
  <ele>0.000000</ele>
  <time>2011-06-25T06:09:28Z</time>
</trkpt>
<trkpt lat="60.599530000" lon="4.874170000">
  <ele>0.000000</ele>
  <time>2011-06-25T06:19:28Z</time>
</trkpt>
<trkpt lat="60.614890000" lon="4.874600000">
  <ele>0.000000</ele>
  <time>2011-06-25T06:29:28Z</time>
</trkpt>
<trkpt lat="60.643310000" lon="4.849030000">
  <ele>0.000000</ele>
  <time>2011-06-25T06:49:48Z</time>
</trkpt>
<trkpt lat="60.655890000" lon="4.837980000">
  <ele>0.000000</ele>
  <time>2011-06-25T06:59:27Z</time>
</trkpt>
<trkpt lat="60.669080000" lon="4.824740000">
  <ele>0.000000</ele>
  <time>2011-06-25T07:09:59Z</time>
</trkpt>
<trkpt lat="60.683240000" lon="4.809200000">
  <ele>0.000000</ele>
  <time>2011-06-25T07:19:59Z</time>
</trkpt>
<trkpt lat="60.700870000" lon="4.790230000">
  <ele>0.000000</ele>
  <time>2011-06-25T07:32:55Z</time>
</trkpt>
<trkpt lat="60.709820000" lon="4.780320000">
  <ele>0.000000</ele>
  <time>2011-06-25T07:39:21Z</time>
</trkpt>
<trkpt lat="60.723810000" lon="4.765990000">
  <ele>0.000000</ele>
  <time>2011-06-25T07:49:21Z</time>
</trkpt>
<trkpt lat="60.737430000" lon="4.751390000">
  <ele>0.000000</ele>
  <time>2011-06-25T07:59:23Z</time>
</trkpt>
<trkpt lat="60.750520000" lon="4.746670000">
  <ele>0.000000</ele>
  <time>2011-06-25T08:09:23Z</time>
</trkpt>
<trkpt lat="60.765220000" lon="4.753020000">
  <ele>0.000000</ele>
  <time>2011-06-25T08:19:55Z</time>
</trkpt>
<trkpt lat="60.778480000" lon="4.760150000">
  <ele>0.000000</ele>
  <time>2011-06-25T08:29:22Z</time>
</trkpt>
<trkpt lat="60.791880000" lon="4.756760000">
  <ele>0.000000</ele>
  <time>2011-06-25T08:39:42Z</time>
</trkpt>
<trkpt lat="60.802030000" lon="4.732580000">
  <ele>0.000000</ele>
  <time>2011-06-25T08:49:27Z</time>
</trkpt>
<trkpt lat="60.812070000" lon="4.708290000">
  <ele>0.000000</ele>
  <time>2011-06-25T08:59:21Z</time>
</trkpt>
<trkpt lat="60.822120000" lon="4.684750000">
  <ele>0.000000</ele>
  <time>2011-06-25T09:09:20Z</time>
</trkpt>
<trkpt lat="60.832990000" lon="4.664510000">
  <ele>0.000000</ele>
  <time>2011-06-25T09:19:19Z</time>
</trkpt>
<trkpt lat="60.846510000" lon="4.652970000">
  <ele>0.000000</ele>
  <time>2011-06-25T09:29:18Z</time>
</trkpt>
<trkpt lat="60.859480000" lon="4.653680000">
  <ele>0.000000</ele>
  <time>2011-06-25T09:39:21Z</time>
</trkpt>
<trkpt lat="60.872630000" lon="4.660180000">
  <ele>0.000000</ele>
  <time>2011-06-25T09:49:20Z</time>
</trkpt>
<trkpt lat="60.885070000" lon="4.668820000">
  <ele>0.000000</ele>
  <time>2011-06-25T09:59:52Z</time>
</trkpt>
<trkpt lat="60.898590000" lon="4.677490000">
  <ele>0.000000</ele>
  <time>2011-06-25T10:09:52Z</time>
</trkpt>
<trkpt lat="60.915780000" lon="4.696930000">
  <ele>0.000000</ele>
  <time>2011-06-25T10:15:55Z</time>
</trkpt>
<trkpt lat="60.915780000" lon="4.696930000">
  <ele>0.000000</ele>
  <time>2011-06-25T10:25:55Z</time>
</trkpt>
<trkpt lat="60.926150000" lon="4.706400000">
  <ele>0.000000</ele>
  <time>2011-06-25T10:34:54Z</time>
</trkpt>
<trkpt lat="60.938040000" lon="4.715580000">
  <ele>0.000000</ele>
  <time>2011-06-25T10:44:54Z</time>
</trkpt>
<trkpt lat="60.954570000" lon="4.725690000">
  <ele>0.000000</ele>
  <time>2011-06-25T10:57:56Z</time>
</trkpt>
<trkpt lat="60.964310000" lon="4.729810000">
  <ele>0.000000</ele>
  <time>2011-06-25T11:05:56Z</time>
</trkpt>
<trkpt lat="60.972920000" lon="4.732730000">
  <ele>0.000000</ele>
  <time>2011-06-25T11:15:00Z</time>
</trkpt>
<trkpt lat="60.983050000" lon="4.737360000">
  <ele>0.000000</ele>
  <time>2011-06-25T11:25:00Z</time>
</trkpt>
<trkpt lat="60.996320000" lon="4.744060000">
  <ele>0.000000</ele>
  <time>2011-06-25T11:34:51Z</time>
</trkpt>
<trkpt lat="61.009880000" lon="4.751610000">
  <ele>0.000000</ele>
  <time>2011-06-25T11:44:50Z</time>
</trkpt>
<trkpt lat="61.023890000" lon="4.754720000">
  <ele>0.000000</ele>
  <time>2011-06-25T11:54:50Z</time>
</trkpt>
<trkpt lat="61.036950000" lon="4.744290000">
  <ele>0.000000</ele>
  <time>2011-06-25T12:04:49Z</time>
</trkpt>
<trkpt lat="61.050740000" lon="4.735220000">
  <ele>0.000000</ele>
  <time>2011-06-25T12:14:48Z</time>
</trkpt>
<trkpt lat="61.064300000" lon="4.729210000">
  <ele>0.000000</ele>
  <time>2011-06-25T12:24:48Z</time>
</trkpt>
<trkpt lat="61.078520000" lon="4.723480000">
  <ele>0.000000</ele>
  <time>2011-06-25T12:34:48Z</time>
</trkpt>
<trkpt lat="61.092610000" lon="4.715560000">
  <ele>0.000000</ele>
  <time>2011-06-25T12:44:50Z</time>
</trkpt>
<trkpt lat="61.106380000" lon="4.706050000">
  <ele>0.000000</ele>
  <time>2011-06-25T12:54:47Z</time>
</trkpt>
<trkpt lat="61.120880000" lon="4.707750000">
  <ele>0.000000</ele>
  <time>2011-06-25T13:04:49Z</time>
</trkpt>
<trkpt lat="61.138720000" lon="4.703110000">
  <ele>0.000000</ele>
  <time>2011-06-25T13:17:25Z</time>
</trkpt>
<trkpt lat="61.149300000" lon="4.697040000">
  <ele>0.000000</ele>
  <time>2011-06-25T13:25:00Z</time>
</trkpt>
<trkpt lat="61.162710000" lon="4.690000000">
  <ele>0.000000</ele>
  <time>2011-06-25T13:34:45Z</time>
</trkpt>
<trkpt lat="61.176170000" lon="4.679660000">
  <ele>0.000000</ele>
  <time>2011-06-25T13:44:44Z</time>
</trkpt>
<trkpt lat="61.189940000" lon="4.669530000">
  <ele>0.000000</ele>
  <time>2011-06-25T13:54:46Z</time>
</trkpt>
<trkpt lat="61.218510000" lon="4.659060000">
  <ele>0.000000</ele>
  <time>2011-06-25T14:14:41Z</time>
</trkpt>
<trkpt lat="61.232800000" lon="4.653310000">
  <ele>0.000000</ele>
  <time>2011-06-25T14:24:41Z</time>
</trkpt>
<trkpt lat="61.247130000" lon="4.646270000">
  <ele>0.000000</ele>
  <time>2011-06-25T14:34:41Z</time>
</trkpt>
<trkpt lat="61.261320000" lon="4.640560000">
  <ele>0.000000</ele>
  <time>2011-06-25T14:44:41Z</time>
</trkpt>
<trkpt lat="61.275610000" lon="4.632450000">
  <ele>0.000000</ele>
  <time>2011-06-25T14:54:37Z</time>
</trkpt>
<trkpt lat="61.287010000" lon="4.634080000">
  <ele>0.000000</ele>
  <time>2011-06-25T15:04:40Z</time>
</trkpt>
	</trkseg>
	<trkseg>
<trkpt lat="61.285550000" lon="4.633360000">
  <ele>0.000000</ele>
  <time>2011-06-25T19:44:49Z</time>
</trkpt>
<trkpt lat="61.282340000" lon="4.641360000">
  <ele>0.000000</ele>
  <time>2011-06-25T19:54:57Z</time>
</trkpt>
<trkpt lat="61.291980000" lon="4.648700000">
  <ele>0.000000</ele>
  <time>2011-06-25T20:04:45Z</time>
</trkpt>
<trkpt lat="61.308560000" lon="4.639000000">
  <ele>0.000000</ele>
  <time>2011-06-25T20:17:32Z</time>
</trkpt>
<trkpt lat="61.318020000" lon="4.632880000">
  <ele>0.000000</ele>
  <time>2011-06-25T20:24:44Z</time>
</trkpt>
<trkpt lat="61.331070000" lon="4.625220000">
  <ele>0.000000</ele>
  <time>2011-06-25T20:34:46Z</time>
</trkpt>
<trkpt lat="61.344010000" lon="4.618310000">
  <ele>0.000000</ele>
  <time>2011-06-25T20:44:46Z</time>
</trkpt>
<trkpt lat="61.356560000" lon="4.610610000">
  <ele>0.000000</ele>
  <time>2011-06-25T20:54:45Z</time>
</trkpt>
<trkpt lat="61.369310000" lon="4.603030000">
  <ele>0.000000</ele>
  <time>2011-06-25T21:04:44Z</time>
</trkpt>
<trkpt lat="61.382270000" lon="4.595310000">
  <ele>0.000000</ele>
  <time>2011-06-25T21:14:44Z</time>
</trkpt>
<trkpt lat="61.395530000" lon="4.587650000">
  <ele>0.000000</ele>
  <time>2011-06-25T21:24:53Z</time>
</trkpt>
<trkpt lat="61.422420000" lon="4.573250000">
  <ele>0.000000</ele>
  <time>2011-06-25T21:44:46Z</time>
</trkpt>
<trkpt lat="61.435930000" lon="4.566430000">
  <ele>0.000000</ele>
  <time>2011-06-25T21:54:42Z</time>
</trkpt>
<trkpt lat="61.451230000" lon="4.558360000">
  <ele>0.000000</ele>
  <time>2011-06-25T22:05:56Z</time>
</trkpt>
<trkpt lat="61.463370000" lon="4.552030000">
  <ele>0.000000</ele>
  <time>2011-06-25T22:16:01Z</time>
</trkpt>
<trkpt lat="61.479030000" lon="4.550910000">
  <ele>0.000000</ele>
  <time>2011-06-25T22:26:01Z</time>
</trkpt>
<trkpt lat="61.491020000" lon="4.555870000">
  <ele>0.000000</ele>
  <time>2011-06-25T22:34:52Z</time>
</trkpt>
<trkpt lat="61.504920000" lon="4.563060000">
  <ele>0.000000</ele>
  <time>2011-06-25T22:44:51Z</time>
</trkpt>
<trkpt lat="61.518460000" lon="4.570680000">
  <ele>0.000000</ele>
  <time>2011-06-25T22:54:38Z</time>
</trkpt>
<trkpt lat="61.531890000" lon="4.577290000">
  <ele>0.000000</ele>
  <time>2011-06-25T23:04:38Z</time>
</trkpt>
<trkpt lat="61.545560000" lon="4.584330000">
  <ele>0.000000</ele>
  <time>2011-06-25T23:15:54Z</time>
</trkpt>
<trkpt lat="61.560450000" lon="4.592480000">
  <ele>0.000000</ele>
  <time>2011-06-25T23:25:54Z</time>
</trkpt>
<trkpt lat="61.571870000" lon="4.599430000">
  <ele>0.000000</ele>
  <time>2011-06-25T23:35:54Z</time>
</trkpt>
<trkpt lat="61.596170000" lon="4.611360000">
  <ele>0.000000</ele>
  <time>2011-06-25T23:54:35Z</time>
</trkpt>
<trkpt lat="61.609740000" lon="4.617460000">
  <ele>0.000000</ele>
  <time>2011-06-26T00:04:35Z</time>
</trkpt>
<trkpt lat="61.623390000" lon="4.623180000">
  <ele>0.000000</ele>
  <time>2011-06-26T00:14:34Z</time>
</trkpt>
<trkpt lat="61.636940000" lon="4.626900000">
  <ele>0.000000</ele>
  <time>2011-06-26T00:24:39Z</time>
</trkpt>
<trkpt lat="61.650120000" lon="4.632020000">
  <ele>0.000000</ele>
  <time>2011-06-26T00:34:33Z</time>
</trkpt>
<trkpt lat="61.663370000" lon="4.638890000">
  <ele>0.000000</ele>
  <time>2011-06-26T00:44:38Z</time>
</trkpt>
<trkpt lat="61.663340000" lon="4.638830000">
  <ele>0.000000</ele>
  <time>2011-06-26T00:44:51Z</time>
</trkpt>
<trkpt lat="61.675690000" lon="4.645760000">
  <ele>0.000000</ele>
  <time>2011-06-26T00:54:38Z</time>
</trkpt>
<trkpt lat="61.689410000" lon="4.655370000">
  <ele>0.000000</ele>
  <time>2011-06-26T01:05:26Z</time>
</trkpt>
<trkpt lat="61.700960000" lon="4.663030000">
  <ele>0.000000</ele>
  <time>2011-06-26T01:14:31Z</time>
</trkpt>
<trkpt lat="61.713790000" lon="4.671680000">
  <ele>0.000000</ele>
  <time>2011-06-26T01:24:30Z</time>
</trkpt>
<trkpt lat="61.726720000" lon="4.680800000">
  <ele>0.000000</ele>
  <time>2011-06-26T01:34:33Z</time>
</trkpt>
<trkpt lat="61.740250000" lon="4.689830000">
  <ele>0.000000</ele>
  <time>2011-06-26T01:44:29Z</time>
</trkpt>
<trkpt lat="61.754310000" lon="4.699170000">
  <ele>0.000000</ele>
  <time>2011-06-26T01:54:28Z</time>
</trkpt>
<trkpt lat="61.773100000" lon="4.711570000">
  <ele>0.000000</ele>
  <time>2011-06-26T02:07:25Z</time>
</trkpt>
<trkpt lat="61.783360000" lon="4.717530000">
  <ele>0.000000</ele>
  <time>2011-06-26T02:14:31Z</time>
</trkpt>
<trkpt lat="61.798270000" lon="4.726630000">
  <ele>0.000000</ele>
  <time>2011-06-26T02:24:57Z</time>
</trkpt>
<trkpt lat="61.811290000" lon="4.734680000">
  <ele>0.000000</ele>
  <time>2011-06-26T02:34:27Z</time>
</trkpt>
<trkpt lat="61.825620000" lon="4.744120000">
  <ele>0.000000</ele>
  <time>2011-06-26T02:44:25Z</time>
</trkpt>
<trkpt lat="61.839180000" lon="4.752960000">
  <ele>0.000000</ele>
  <time>2011-06-26T02:54:25Z</time>
</trkpt>
<trkpt lat="61.853290000" lon="4.762470000">
  <ele>0.000000</ele>
  <time>2011-06-26T03:04:22Z</time>
</trkpt>
<trkpt lat="61.867520000" lon="4.772170000">
  <ele>0.000000</ele>
  <time>2011-06-26T03:14:30Z</time>
</trkpt>
<trkpt lat="61.882330000" lon="4.782380000">
  <ele>0.000000</ele>
  <time>2011-06-26T03:24:30Z</time>
</trkpt>
<trkpt lat="61.897540000" lon="4.793000000">
  <ele>0.000000</ele>
  <time>2011-06-26T03:34:23Z</time>
</trkpt>
<trkpt lat="61.913300000" lon="4.804010000">
  <ele>0.000000</ele>
  <time>2011-06-26T03:45:34Z</time>
</trkpt>
<trkpt lat="61.930680000" lon="4.815680000">
  <ele>0.000000</ele>
  <time>2011-06-26T03:55:34Z</time>
</trkpt>
<trkpt lat="61.943360000" lon="4.828560000">
  <ele>0.000000</ele>
  <time>2011-06-26T04:04:19Z</time>
</trkpt>
<trkpt lat="61.958710000" lon="4.842250000">
  <ele>0.000000</ele>
  <time>2011-06-26T04:14:21Z</time>
</trkpt>
<trkpt lat="61.974710000" lon="4.853450000">
  <ele>0.000000</ele>
  <time>2011-06-26T04:24:20Z</time>
</trkpt>
<trkpt lat="61.990720000" lon="4.865060000">
  <ele>0.000000</ele>
  <time>2011-06-26T04:34:23Z</time>
</trkpt>
<trkpt lat="62.006620000" lon="4.875980000">
  <ele>0.000000</ele>
  <time>2011-06-26T04:44:26Z</time>
</trkpt>
<trkpt lat="62.021840000" lon="4.885780000">
  <ele>0.000000</ele>
  <time>2011-06-26T04:54:19Z</time>
</trkpt>
<trkpt lat="62.036870000" lon="4.895440000">
  <ele>0.000000</ele>
  <time>2011-06-26T05:04:22Z</time>
</trkpt>
<trkpt lat="62.051040000" lon="4.906940000">
  <ele>0.000000</ele>
  <time>2011-06-26T05:14:18Z</time>
</trkpt>
<trkpt lat="62.065270000" lon="4.920070000">
  <ele>0.000000</ele>
  <time>2011-06-26T05:24:29Z</time>
</trkpt>
<trkpt lat="62.079820000" lon="4.933050000">
  <ele>0.000000</ele>
  <time>2011-06-26T05:34:52Z</time>
</trkpt>
<trkpt lat="62.092990000" lon="4.943930000">
  <ele>0.000000</ele>
  <time>2011-06-26T05:44:13Z</time>
</trkpt>
<trkpt lat="62.108140000" lon="4.955740000">
  <ele>0.000000</ele>
  <time>2011-06-26T05:54:48Z</time>
</trkpt>
<trkpt lat="62.122010000" lon="4.966250000">
  <ele>0.000000</ele>
  <time>2011-06-26T06:04:24Z</time>
</trkpt>
<trkpt lat="62.136460000" lon="4.977260000">
  <ele>0.000000</ele>
  <time>2011-06-26T06:14:14Z</time>
</trkpt>
<trkpt lat="62.151110000" lon="4.989140000">
  <ele>0.000000</ele>
  <time>2011-06-26T06:24:17Z</time>
</trkpt>
<trkpt lat="62.165820000" lon="5.001420000">
  <ele>0.000000</ele>
  <time>2011-06-26T06:34:10Z</time>
</trkpt>
<trkpt lat="62.180820000" lon="5.014080000">
  <ele>0.000000</ele>
  <time>2011-06-26T06:44:10Z</time>
</trkpt>
<trkpt lat="62.194950000" lon="5.030620000">
  <ele>0.000000</ele>
  <time>2011-06-26T06:54:13Z</time>
</trkpt>
<trkpt lat="62.208270000" lon="5.049930000">
  <ele>0.000000</ele>
  <time>2011-06-26T07:04:12Z</time>
</trkpt>
<trkpt lat="62.220130000" lon="5.071150000">
  <ele>0.000000</ele>
  <time>2011-06-26T07:14:11Z</time>
</trkpt>
<trkpt lat="62.231930000" lon="5.092870000">
  <ele>0.000000</ele>
  <time>2011-06-26T07:24:11Z</time>
</trkpt>
<trkpt lat="62.244230000" lon="5.114910000">
  <ele>0.000000</ele>
  <time>2011-06-26T07:34:40Z</time>
</trkpt>
<trkpt lat="62.266910000" lon="5.150900000">
  <ele>0.000000</ele>
  <time>2011-06-26T07:41:01Z</time>
</trkpt>
<trkpt lat="62.266910000" lon="5.150900000">
  <ele>0.000000</ele>
  <time>2011-06-26T07:51:01Z</time>
</trkpt>
<trkpt lat="62.275880000" lon="5.169350000">
  <ele>0.000000</ele>
  <time>2011-06-26T08:01:01Z</time>
</trkpt>
<trkpt lat="62.286050000" lon="5.193640000">
  <ele>0.000000</ele>
  <time>2011-06-26T08:10:54Z</time>
</trkpt>
<trkpt lat="62.296440000" lon="5.219110000">
  <ele>0.000000</ele>
  <time>2011-06-26T08:20:59Z</time>
</trkpt>
<trkpt lat="62.307830000" lon="5.247500000">
  <ele>0.000000</ele>
  <time>2011-06-26T08:31:59Z</time>
</trkpt>
<trkpt lat="62.337720000" lon="5.324910000">
  <ele>0.000000</ele>
  <time>2011-06-26T09:00:51Z</time>
</trkpt>
<trkpt lat="62.348010000" lon="5.351410000">
  <ele>0.000000</ele>
  <time>2011-06-26T09:10:51Z</time>
</trkpt>
<trkpt lat="62.358490000" lon="5.377310000">
  <ele>0.000000</ele>
  <time>2011-06-26T09:20:59Z</time>
</trkpt>
<trkpt lat="62.369000000" lon="5.401860000">
  <ele>0.000000</ele>
  <time>2011-06-26T09:30:59Z</time>
</trkpt>
<trkpt lat="62.379020000" lon="5.424260000">
  <ele>0.000000</ele>
  <time>2011-06-26T09:40:47Z</time>
</trkpt>
<trkpt lat="62.389230000" lon="5.446690000">
  <ele>0.000000</ele>
  <time>2011-06-26T09:50:49Z</time>
</trkpt>
<trkpt lat="62.399330000" lon="5.469240000">
  <ele>0.000000</ele>
  <time>2011-06-26T10:00:48Z</time>
</trkpt>
<trkpt lat="62.407910000" lon="5.493120000">
  <ele>0.000000</ele>
  <time>2011-06-26T10:11:03Z</time>
</trkpt>
<trkpt lat="62.415400000" lon="5.518570000">
  <ele>0.000000</ele>
  <time>2011-06-26T10:20:47Z</time>
</trkpt>
<trkpt lat="62.414670000" lon="5.546440000">
  <ele>0.000000</ele>
  <time>2011-06-26T10:30:46Z</time>
</trkpt>
<trkpt lat="62.408330000" lon="5.573520000">
  <ele>0.000000</ele>
  <time>2011-06-26T10:40:47Z</time>
</trkpt>
<trkpt lat="62.403690000" lon="5.588330000">
  <ele>0.000000</ele>
  <time>2011-06-26T10:51:27Z</time>
</trkpt>
<trkpt lat="62.410990000" lon="5.578580000">
  <ele>0.000000</ele>
  <time>2011-06-26T11:00:51Z</time>
</trkpt>
<trkpt lat="62.422230000" lon="5.592060000">
  <ele>0.000000</ele>
  <time>2011-06-26T11:10:51Z</time>
</trkpt>
<trkpt lat="62.429670000" lon="5.615240000">
  <ele>0.000000</ele>
  <time>2011-06-26T11:20:50Z</time>
</trkpt>
<trkpt lat="62.436430000" lon="5.638620000">
  <ele>0.000000</ele>
  <time>2011-06-26T11:31:24Z</time>
</trkpt>
<trkpt lat="62.445060000" lon="5.665230000">
  <ele>0.000000</ele>
  <time>2011-06-26T11:41:24Z</time>
</trkpt>
<trkpt lat="62.452270000" lon="5.689970000">
  <ele>0.000000</ele>
  <time>2011-06-26T11:50:39Z</time>
</trkpt>
<trkpt lat="62.459510000" lon="5.717350000">
  <ele>0.000000</ele>
  <time>2011-06-26T12:00:39Z</time>
</trkpt>
<trkpt lat="62.467930000" lon="5.747140000">
  <ele>0.000000</ele>
  <time>2011-06-26T12:10:46Z</time>
</trkpt>
<trkpt lat="62.475270000" lon="5.771170000">
  <ele>0.000000</ele>
  <time>2011-06-26T12:20:46Z</time>
</trkpt>
<trkpt lat="62.484150000" lon="5.796470000">
  <ele>0.000000</ele>
  <time>2011-06-26T12:30:39Z</time>
</trkpt>
<trkpt lat="62.492860000" lon="5.822220000">
  <ele>0.000000</ele>
  <time>2011-06-26T12:40:39Z</time>
</trkpt>
<trkpt lat="62.501840000" lon="5.848450000">
  <ele>0.000000</ele>
  <time>2011-06-26T12:50:44Z</time>
</trkpt>
<trkpt lat="62.510590000" lon="5.872830000">
  <ele>0.000000</ele>
  <time>2011-06-26T13:00:44Z</time>
</trkpt>
<trkpt lat="62.519340000" lon="5.897380000">
  <ele>0.000000</ele>
  <time>2011-06-26T13:10:44Z</time>
</trkpt>
<trkpt lat="62.528760000" lon="5.921010000">
  <ele>0.000000</ele>
  <time>2011-06-26T13:20:56Z</time>
</trkpt>
<trkpt lat="62.538150000" lon="5.944550000">
  <ele>0.000000</ele>
  <time>2011-06-26T13:30:34Z</time>
</trkpt>
<trkpt lat="62.548480000" lon="5.967440000">
  <ele>0.000000</ele>
  <time>2011-06-26T13:40:36Z</time>
</trkpt>
<trkpt lat="62.559250000" lon="5.989240000">
  <ele>0.000000</ele>
  <time>2011-06-26T13:50:36Z</time>
</trkpt>
<trkpt lat="62.572190000" lon="6.021190000">
  <ele>0.000000</ele>
  <time>2011-06-26T14:03:27Z</time>
</trkpt>
<trkpt lat="62.578920000" lon="6.040830000">
  <ele>0.000000</ele>
  <time>2011-06-26T14:10:34Z</time>
</trkpt>
<trkpt lat="62.589780000" lon="6.065380000">
  <ele>0.000000</ele>
  <time>2011-06-26T14:20:34Z</time>
</trkpt>
<trkpt lat="62.597370000" lon="6.081660000">
  <ele>0.000000</ele>
  <time>2011-06-26T14:30:40Z</time>
</trkpt>
<trkpt lat="62.597240000" lon="6.115310000">
  <ele>0.000000</ele>
  <time>2011-06-26T14:40:33Z</time>
</trkpt>
<trkpt lat="62.597710000" lon="6.144920000">
  <ele>0.000000</ele>
  <time>2011-06-26T14:50:36Z</time>
</trkpt>
<trkpt lat="62.596310000" lon="6.167100000">
  <ele>0.000000</ele>
  <time>2011-06-26T15:00:47Z</time>
</trkpt>
<trkpt lat="62.593910000" lon="6.197660000">
  <ele>0.000000</ele>
  <time>2011-06-26T15:10:47Z</time>
</trkpt>
<trkpt lat="62.594790000" lon="6.223050000">
  <ele>0.000000</ele>
  <time>2011-06-26T15:20:37Z</time>
</trkpt>
<trkpt lat="62.606050000" lon="6.237920000">
  <ele>0.000000</ele>
  <time>2011-06-26T15:30:42Z</time>
</trkpt>
<trkpt lat="62.616990000" lon="6.260430000">
  <ele>0.000000</ele>
  <time>2011-06-26T15:41:06Z</time>
</trkpt>
<trkpt lat="62.622100000" lon="6.287120000">
  <ele>0.000000</ele>
  <time>2011-06-26T15:50:58Z</time>
</trkpt>
<trkpt lat="62.626950000" lon="6.315190000">
  <ele>0.000000</ele>
  <time>2011-06-26T16:00:58Z</time>
</trkpt>
<trkpt lat="62.627980000" lon="6.344730000">
  <ele>0.000000</ele>
  <time>2011-06-26T16:10:28Z</time>
</trkpt>
<trkpt lat="62.634880000" lon="6.368340000">
  <ele>0.000000</ele>
  <time>2011-06-26T16:20:26Z</time>
</trkpt>
<trkpt lat="62.645950000" lon="6.384990000">
  <ele>0.000000</ele>
  <time>2011-06-26T16:30:26Z</time>
</trkpt>
<trkpt lat="62.656590000" lon="6.400780000">
  <ele>0.000000</ele>
  <time>2011-06-26T16:40:26Z</time>
</trkpt>
<trkpt lat="62.667070000" lon="6.415440000">
  <ele>0.000000</ele>
  <time>2011-06-26T16:50:26Z</time>
</trkpt>
<trkpt lat="62.677560000" lon="6.429710000">
  <ele>0.000000</ele>
  <time>2011-06-26T17:00:25Z</time>
</trkpt>
<trkpt lat="62.688030000" lon="6.444640000">
  <ele>0.000000</ele>
  <time>2011-06-26T17:10:25Z</time>
</trkpt>
<trkpt lat="62.698710000" lon="6.461010000">
  <ele>0.000000</ele>
  <time>2011-06-26T17:20:27Z</time>
</trkpt>
<trkpt lat="62.709640000" lon="6.477150000">
  <ele>0.000000</ele>
  <time>2011-06-26T17:30:20Z</time>
</trkpt>
<trkpt lat="62.720630000" lon="6.493370000">
  <ele>0.000000</ele>
  <time>2011-06-26T17:40:20Z</time>
</trkpt>
<trkpt lat="62.732030000" lon="6.509960000">
  <ele>0.000000</ele>
  <time>2011-06-26T17:50:40Z</time>
</trkpt>
<trkpt lat="62.748640000" lon="6.527340000">
  <ele>0.000000</ele>
  <time>2011-06-26T18:04:07Z</time>
</trkpt>
<trkpt lat="62.757740000" lon="6.537140000">
  <ele>0.000000</ele>
  <time>2011-06-26T18:11:36Z</time>
</trkpt>
<trkpt lat="62.784540000" lon="6.597760000">
  <ele>0.000000</ele>
  <time>2011-06-26T18:40:32Z</time>
</trkpt>
<trkpt lat="62.792280000" lon="6.620100000">
  <ele>0.000000</ele>
  <time>2011-06-26T18:50:19Z</time>
</trkpt>
<trkpt lat="62.800690000" lon="6.641640000">
  <ele>0.000000</ele>
  <time>2011-06-26T19:00:19Z</time>
</trkpt>
<trkpt lat="62.806100000" lon="6.669020000">
  <ele>0.000000</ele>
  <time>2011-06-26T19:10:18Z</time>
</trkpt>
<trkpt lat="62.809780000" lon="6.694170000">
  <ele>0.000000</ele>
  <time>2011-06-26T19:20:17Z</time>
</trkpt>
	</trkseg>
	<trkseg>
<trkpt lat="62.810070000" lon="6.694820000">
  <ele>0.000000</ele>
  <time>2011-06-26T23:58:39Z</time>
</trkpt>
<trkpt lat="62.820180000" lon="6.681680000">
  <ele>0.000000</ele>
  <time>2011-06-27T00:08:03Z</time>
</trkpt>
<trkpt lat="62.836220000" lon="6.678740000">
  <ele>0.000000</ele>
  <time>2011-06-27T00:19:11Z</time>
</trkpt>
<trkpt lat="62.847300000" lon="6.693480000">
  <ele>0.000000</ele>
  <time>2011-06-27T00:28:29Z</time>
</trkpt>
<trkpt lat="62.859930000" lon="6.706330000">
  <ele>0.000000</ele>
  <time>2011-06-27T00:38:31Z</time>
</trkpt>
<trkpt lat="62.870400000" lon="6.723930000">
  <ele>0.000000</ele>
  <time>2011-06-27T00:48:31Z</time>
</trkpt>
<trkpt lat="62.880050000" lon="6.745030000">
  <ele>0.000000</ele>
  <time>2011-06-27T00:58:30Z</time>
</trkpt>
<trkpt lat="62.889840000" lon="6.765410000">
  <ele>0.000000</ele>
  <time>2011-06-27T01:08:27Z</time>
</trkpt>
<trkpt lat="62.899460000" lon="6.786870000">
  <ele>0.000000</ele>
  <time>2011-06-27T01:18:26Z</time>
</trkpt>
<trkpt lat="62.908250000" lon="6.810750000">
  <ele>0.000000</ele>
  <time>2011-06-27T01:28:29Z</time>
</trkpt>
<trkpt lat="62.917380000" lon="6.834330000">
  <ele>0.000000</ele>
  <time>2011-06-27T01:38:28Z</time>
</trkpt>
<trkpt lat="62.929490000" lon="6.851760000">
  <ele>0.000000</ele>
  <time>2011-06-27T01:48:28Z</time>
</trkpt>
<trkpt lat="62.942520000" lon="6.868280000">
  <ele>0.000000</ele>
  <time>2011-06-27T01:59:18Z</time>
</trkpt>
<trkpt lat="62.952890000" lon="6.883660000">
  <ele>0.000000</ele>
  <time>2011-06-27T02:08:27Z</time>
</trkpt>
<trkpt lat="62.963780000" lon="6.900960000">
  <ele>0.000000</ele>
  <time>2011-06-27T02:18:26Z</time>
</trkpt>
<trkpt lat="62.971820000" lon="6.924580000">
  <ele>0.000000</ele>
  <time>2011-06-27T02:28:25Z</time>
</trkpt>
<trkpt lat="62.979220000" lon="6.948120000">
  <ele>0.000000</ele>
  <time>2011-06-27T02:38:28Z</time>
</trkpt>
<trkpt lat="62.985580000" lon="6.972030000">
  <ele>0.000000</ele>
  <time>2011-06-27T02:48:24Z</time>
</trkpt>
<trkpt lat="62.991520000" lon="6.996320000">
  <ele>0.000000</ele>
  <time>2011-06-27T02:58:24Z</time>
</trkpt>
<trkpt lat="62.997690000" lon="7.021190000">
  <ele>0.000000</ele>
  <time>2011-06-27T03:08:23Z</time>
</trkpt>
<trkpt lat="63.003890000" lon="7.046500000">
  <ele>0.000000</ele>
  <time>2011-06-27T03:18:22Z</time>
</trkpt>
<trkpt lat="63.008350000" lon="7.072080000">
  <ele>0.000000</ele>
  <time>2011-06-27T03:28:22Z</time>
</trkpt>
<trkpt lat="63.014520000" lon="7.108240000">
  <ele>0.000000</ele>
  <time>2011-06-27T03:42:07Z</time>
</trkpt>
<trkpt lat="63.017690000" lon="7.125840000">
  <ele>0.000000</ele>
  <time>2011-06-27T03:48:20Z</time>
</trkpt>
<trkpt lat="63.020950000" lon="7.152700000">
  <ele>0.000000</ele>
  <time>2011-06-27T03:58:20Z</time>
</trkpt>
<trkpt lat="63.022820000" lon="7.181520000">
  <ele>0.000000</ele>
  <time>2011-06-27T04:08:23Z</time>
</trkpt>
<trkpt lat="63.025160000" lon="7.209290000">
  <ele>0.000000</ele>
  <time>2011-06-27T04:19:01Z</time>
</trkpt>
<trkpt lat="63.029450000" lon="7.238210000">
  <ele>0.000000</ele>
  <time>2011-06-27T04:29:01Z</time>
</trkpt>
<trkpt lat="63.033630000" lon="7.264020000">
  <ele>0.000000</ele>
  <time>2011-06-27T04:38:22Z</time>
</trkpt>
<trkpt lat="63.038090000" lon="7.293310000">
  <ele>0.000000</ele>
  <time>2011-06-27T04:48:18Z</time>
</trkpt>
<trkpt lat="63.043240000" lon="7.322600000">
  <ele>0.000000</ele>
  <time>2011-06-27T04:58:17Z</time>
</trkpt>
<trkpt lat="63.049140000" lon="7.351660000">
  <ele>0.000000</ele>
  <time>2011-06-27T05:08:14Z</time>
</trkpt>
<trkpt lat="63.057260000" lon="7.379550000">
  <ele>0.000000</ele>
  <time>2011-06-27T05:18:16Z</time>
</trkpt>
<trkpt lat="63.065350000" lon="7.409590000">
  <ele>0.000000</ele>
  <time>2011-06-27T05:28:16Z</time>
</trkpt>
<trkpt lat="63.073330000" lon="7.436840000">
  <ele>0.000000</ele>
  <time>2011-06-27T05:38:12Z</time>
</trkpt>
<trkpt lat="63.082110000" lon="7.466820000">
  <ele>0.000000</ele>
  <time>2011-06-27T05:49:32Z</time>
</trkpt>
<trkpt lat="63.088990000" lon="7.489590000">
  <ele>0.000000</ele>
  <time>2011-06-27T05:58:11Z</time>
</trkpt>
<trkpt lat="63.096860000" lon="7.516190000">
  <ele>0.000000</ele>
  <time>2011-06-27T06:08:13Z</time>
</trkpt>
<trkpt lat="63.105470000" lon="7.543320000">
  <ele>0.000000</ele>
  <time>2011-06-27T06:18:09Z</time>
</trkpt>
<trkpt lat="63.114970000" lon="7.574770000">
  <ele>0.000000</ele>
  <time>2011-06-27T06:29:18Z</time>
</trkpt>
<trkpt lat="63.123210000" lon="7.599300000">
  <ele>0.000000</ele>
  <time>2011-06-27T06:38:12Z</time>
</trkpt>
<trkpt lat="63.132760000" lon="7.625520000">
  <ele>0.000000</ele>
  <time>2011-06-27T06:48:08Z</time>
</trkpt>
<trkpt lat="63.142630000" lon="7.650410000">
  <ele>0.000000</ele>
  <time>2011-06-27T06:58:08Z</time>
</trkpt>
<trkpt lat="63.152240000" lon="7.677320000">
  <ele>0.000000</ele>
  <time>2011-06-27T07:08:07Z</time>
</trkpt>
<trkpt lat="63.161470000" lon="7.706140000">
  <ele>0.000000</ele>
  <time>2011-06-27T07:18:30Z</time>
</trkpt>
<trkpt lat="63.170590000" lon="7.731500000">
  <ele>0.000000</ele>
  <time>2011-06-27T07:28:06Z</time>
</trkpt>
<trkpt lat="63.180550000" lon="7.757870000">
  <ele>0.000000</ele>
  <time>2011-06-27T07:38:08Z</time>
</trkpt>
<trkpt lat="63.189450000" lon="7.788150000">
  <ele>0.000000</ele>
  <time>2011-06-27T07:48:05Z</time>
</trkpt>
<trkpt lat="63.197320000" lon="7.821710000">
  <ele>0.000000</ele>
  <time>2011-06-27T07:58:04Z</time>
</trkpt>
<trkpt lat="63.203120000" lon="7.850980000">
  <ele>0.000000</ele>
  <time>2011-06-27T08:08:04Z</time>
</trkpt>
<trkpt lat="63.209760000" lon="7.884560000">
  <ele>0.000000</ele>
  <time>2011-06-27T08:18:03Z</time>
</trkpt>
<trkpt lat="63.216500000" lon="7.915990000">
  <ele>0.000000</ele>
  <time>2011-06-27T08:28:05Z</time>
</trkpt>
<trkpt lat="63.223110000" lon="7.946760000">
  <ele>0.000000</ele>
  <time>2011-06-27T08:38:05Z</time>
</trkpt>
<trkpt lat="63.229770000" lon="7.976070000">
  <ele>0.000000</ele>
  <time>2011-06-27T08:48:04Z</time>
</trkpt>
<trkpt lat="63.236270000" lon="8.006240000">
  <ele>0.000000</ele>
  <time>2011-06-27T08:58:01Z</time>
</trkpt>
<trkpt lat="63.242790000" lon="8.036370000">
  <ele>0.000000</ele>
  <time>2011-06-27T09:08:00Z</time>
</trkpt>
<trkpt lat="63.249620000" lon="8.066200000">
  <ele>0.000000</ele>
  <time>2011-06-27T09:18:00Z</time>
</trkpt>
<trkpt lat="63.256320000" lon="8.095680000">
  <ele>0.000000</ele>
  <time>2011-06-27T09:28:02Z</time>
</trkpt>
<trkpt lat="63.263700000" lon="8.125760000">
  <ele>0.000000</ele>
  <time>2011-06-27T09:38:02Z</time>
</trkpt>
<trkpt lat="63.271070000" lon="8.156340000">
  <ele>0.000000</ele>
  <time>2011-06-27T09:48:01Z</time>
</trkpt>
<trkpt lat="63.279340000" lon="8.184660000">
  <ele>0.000000</ele>
  <time>2011-06-27T09:57:58Z</time>
</trkpt>
<trkpt lat="63.290810000" lon="8.211230000">
  <ele>0.000000</ele>
  <time>2011-06-27T10:07:59Z</time>
</trkpt>
<trkpt lat="63.303680000" lon="8.227540000">
  <ele>0.000000</ele>
  <time>2011-06-27T10:17:59Z</time>
</trkpt>
<trkpt lat="63.317270000" lon="8.244790000">
  <ele>0.000000</ele>
  <time>2011-06-27T10:28:11Z</time>
</trkpt>
<trkpt lat="63.330270000" lon="8.260620000">
  <ele>0.000000</ele>
  <time>2011-06-27T10:37:55Z</time>
</trkpt>
<trkpt lat="63.342760000" lon="8.280260000">
  <ele>0.000000</ele>
  <time>2011-06-27T10:47:55Z</time>
</trkpt>
<trkpt lat="63.355430000" lon="8.299780000">
  <ele>0.000000</ele>
  <time>2011-06-27T10:57:54Z</time>
</trkpt>
<trkpt lat="63.370740000" lon="8.297830000">
  <ele>0.000000</ele>
  <time>2011-06-27T11:07:54Z</time>
</trkpt>
<trkpt lat="63.386020000" lon="8.292340000">
  <ele>0.000000</ele>
  <time>2011-06-27T11:17:56Z</time>
</trkpt>
<trkpt lat="63.401190000" lon="8.279960000">
  <ele>0.000000</ele>
  <time>2011-06-27T11:27:53Z</time>
</trkpt>
<trkpt lat="63.419030000" lon="8.265410000">
  <ele>0.000000</ele>
  <time>2011-06-27T11:37:52Z</time>
</trkpt>
<trkpt lat="63.438160000" lon="8.250630000">
  <ele>0.000000</ele>
  <time>2011-06-27T11:47:54Z</time>
</trkpt>
<trkpt lat="63.455980000" lon="8.233630000">
  <ele>0.000000</ele>
  <time>2011-06-27T11:57:51Z</time>
</trkpt>
<trkpt lat="63.472620000" lon="8.222750000">
  <ele>0.000000</ele>
  <time>2011-06-27T12:07:50Z</time>
</trkpt>
<trkpt lat="63.488290000" lon="8.216960000">
  <ele>0.000000</ele>
  <time>2011-06-27T12:17:50Z</time>
</trkpt>
<trkpt lat="63.501660000" lon="8.215950000">
  <ele>0.000000</ele>
  <time>2011-06-27T12:27:53Z</time>
</trkpt>
<trkpt lat="63.515410000" lon="8.217950000">
  <ele>0.000000</ele>
  <time>2011-06-27T12:37:52Z</time>
</trkpt>
<trkpt lat="63.532820000" lon="8.231250000">
  <ele>0.000000</ele>
  <time>2011-06-27T12:47:57Z</time>
</trkpt>
<trkpt lat="63.549620000" lon="8.248160000">
  <ele>0.000000</ele>
  <time>2011-06-27T12:58:12Z</time>
</trkpt>
<trkpt lat="63.564700000" lon="8.263970000">
  <ele>0.000000</ele>
  <time>2011-06-27T13:07:50Z</time>
</trkpt>
<trkpt lat="63.578470000" lon="8.277250000">
  <ele>0.000000</ele>
  <time>2011-06-27T13:17:03Z</time>
</trkpt>
<trkpt lat="63.592220000" lon="8.290860000">
  <ele>0.000000</ele>
  <time>2011-06-27T13:26:24Z</time>
</trkpt>
<trkpt lat="63.606680000" lon="8.307920000">
  <ele>0.000000</ele>
  <time>2011-06-27T13:36:26Z</time>
</trkpt>
<trkpt lat="63.619610000" lon="8.330320000">
  <ele>0.000000</ele>
  <time>2011-06-27T13:46:25Z</time>
</trkpt>
<trkpt lat="63.626300000" lon="8.362160000">
  <ele>0.000000</ele>
  <time>2011-06-27T13:56:25Z</time>
</trkpt>
<trkpt lat="63.631520000" lon="8.394690000">
  <ele>0.000000</ele>
  <time>2011-06-27T14:06:25Z</time>
</trkpt>
<trkpt lat="63.635860000" lon="8.427740000">
  <ele>0.000000</ele>
  <time>2011-06-27T14:16:25Z</time>
</trkpt>
<trkpt lat="63.639060000" lon="8.458890000">
  <ele>0.000000</ele>
  <time>2011-06-27T14:26:21Z</time>
</trkpt>
<trkpt lat="63.642120000" lon="8.490740000">
  <ele>0.000000</ele>
  <time>2011-06-27T14:36:23Z</time>
</trkpt>
<trkpt lat="63.645180000" lon="8.520630000">
  <ele>0.000000</ele>
  <time>2011-06-27T14:46:19Z</time>
</trkpt>
<trkpt lat="63.647800000" lon="8.549590000">
  <ele>0.000000</ele>
  <time>2011-06-27T14:56:19Z</time>
</trkpt>
<trkpt lat="63.650570000" lon="8.578540000">
  <ele>0.000000</ele>
  <time>2011-06-27T15:06:18Z</time>
</trkpt>
<trkpt lat="63.653710000" lon="8.607440000">
  <ele>0.000000</ele>
  <time>2011-06-27T15:16:18Z</time>
</trkpt>
<trkpt lat="63.656450000" lon="8.637660000">
  <ele>0.000000</ele>
  <time>2011-06-27T15:26:20Z</time>
</trkpt>
<trkpt lat="63.659880000" lon="8.668410000">
  <ele>0.000000</ele>
  <time>2011-06-27T15:36:20Z</time>
</trkpt>
<trkpt lat="63.663450000" lon="8.698270000">
  <ele>0.000000</ele>
  <time>2011-06-27T15:46:19Z</time>
</trkpt>
<trkpt lat="63.667170000" lon="8.729690000">
  <ele>0.000000</ele>
  <time>2011-06-27T15:56:43Z</time>
</trkpt>
<trkpt lat="63.669990000" lon="8.770950000">
  <ele>0.000000</ele>
  <time>2011-06-27T16:09:42Z</time>
</trkpt>
<trkpt lat="63.670990000" lon="8.792240000">
  <ele>0.000000</ele>
  <time>2011-06-27T16:16:15Z</time>
</trkpt>
<trkpt lat="63.672650000" lon="8.825280000">
  <ele>0.000000</ele>
  <time>2011-06-27T16:26:14Z</time>
</trkpt>
<trkpt lat="63.675890000" lon="8.858500000">
  <ele>0.000000</ele>
  <time>2011-06-27T16:36:20Z</time>
</trkpt>
<trkpt lat="63.678620000" lon="8.892770000">
  <ele>0.000000</ele>
  <time>2011-06-27T16:46:31Z</time>
</trkpt>
<trkpt lat="63.681020000" lon="8.925230000">
  <ele>0.000000</ele>
  <time>2011-06-27T16:56:15Z</time>
</trkpt>
<trkpt lat="63.683290000" lon="8.958300000">
  <ele>0.000000</ele>
  <time>2011-06-27T17:07:56Z</time>
</trkpt>
<trkpt lat="63.686290000" lon="8.996920000">
  <ele>0.000000</ele>
  <time>2011-06-27T17:17:56Z</time>
</trkpt>
<trkpt lat="63.688500000" lon="9.026540000">
  <ele>0.000000</ele>
  <time>2011-06-27T17:26:11Z</time>
</trkpt>
<trkpt lat="63.691660000" lon="9.062330000">
  <ele>0.000000</ele>
  <time>2011-06-27T17:36:13Z</time>
</trkpt>
<trkpt lat="63.695690000" lon="9.097470000">
  <ele>0.000000</ele>
  <time>2011-06-27T17:46:13Z</time>
</trkpt>
<trkpt lat="63.696420000" lon="9.133970000">
  <ele>0.000000</ele>
  <time>2011-06-27T17:56:09Z</time>
</trkpt>
<trkpt lat="63.698990000" lon="9.171960000">
  <ele>0.000000</ele>
  <time>2011-06-27T18:06:08Z</time>
</trkpt>
<trkpt lat="63.702290000" lon="9.208950000">
  <ele>0.000000</ele>
  <time>2011-06-27T18:16:08Z</time>
</trkpt>
<trkpt lat="63.705590000" lon="9.245150000">
  <ele>0.000000</ele>
  <time>2011-06-27T18:26:08Z</time>
</trkpt>
<trkpt lat="63.708740000" lon="9.282480000">
  <ele>0.000000</ele>
  <time>2011-06-27T18:36:10Z</time>
</trkpt>
<trkpt lat="63.711440000" lon="9.320850000">
  <ele>0.000000</ele>
  <time>2011-06-27T18:46:10Z</time>
</trkpt>
<trkpt lat="63.713330000" lon="9.359170000">
  <ele>0.000000</ele>
  <time>2011-06-27T18:56:09Z</time>
</trkpt>
<trkpt lat="63.713550000" lon="9.397690000">
  <ele>0.000000</ele>
  <time>2011-06-27T19:06:08Z</time>
</trkpt>
<trkpt lat="63.714450000" lon="9.434250000">
  <ele>0.000000</ele>
  <time>2011-06-27T19:16:08Z</time>
</trkpt>
<trkpt lat="63.715260000" lon="9.469250000">
  <ele>0.000000</ele>
  <time>2011-06-27T19:26:07Z</time>
</trkpt>
<trkpt lat="63.714450000" lon="9.503710000">
  <ele>0.000000</ele>
  <time>2011-06-27T19:36:04Z</time>
</trkpt>
<trkpt lat="63.720380000" lon="9.533280000">
  <ele>0.000000</ele>
  <time>2011-06-27T19:46:06Z</time>
</trkpt>
<trkpt lat="63.725260000" lon="9.564880000">
  <ele>0.000000</ele>
  <time>2011-06-27T19:56:56Z</time>
</trkpt>
<trkpt lat="63.725690000" lon="9.583850000">
  <ele>0.000000</ele>
  <time>2011-06-27T20:06:56Z</time>
</trkpt>
	</trkseg>
	<trkseg>
		<trkpt lat="61.17617000" lon="4.67966000"><time>2011-06-25T14:44:44Z</time><link href="F:\PHOTO LOCATIONS\Bergen-Trondheim\554029-IMG_0604.jpg"><text>554029-IMG_0604.jpg</text></link></trkpt>
	</trkseg>
	<trkseg>
		<trkpt lat="61.28555000" lon="4.63336000"><time>2011-06-25T21:04:45Z</time><link href="F:\PHOTO LOCATIONS\Bergen-Trondheim\554030-IMG_0611.jpg"><text>554030-IMG_0611.jpg</text></link></trkpt>
	</trkseg>
	<trkseg>
		<trkpt lat="61.45123000" lon="4.55836000"><time>2011-06-25T23:05:56Z</time><link href="F:\PHOTO LOCATIONS\Bergen-Trondheim\554031-IMG_0615.jpg"><text>554031-IMG_0615.jpg</text></link></trkpt>
	</trkseg>
	<trkseg>
		<trkpt lat="61.45123000" lon="4.55836000"><time>2011-06-25T23:05:56Z</time><link href="F:\PHOTO LOCATIONS\Bergen-Trondheim\554032-IMG_0618.jpg"><text>554032-IMG_0618.jpg</text></link></trkpt>
	</trkseg>
	<trkseg>
		<trkpt lat="61.45123000" lon="4.55836000"><time>2011-06-25T23:05:56Z</time><link href="F:\PHOTO LOCATIONS\Bergen-Trondheim\554033-IMG_0620.jpg"><text>554033-IMG_0620.jpg</text></link></trkpt>
	</trkseg>
	<trkseg>
		<trkpt lat="61.72672000" lon="4.68080000"><time>2011-06-26T02:34:33Z</time><link href="F:\PHOTO LOCATIONS\Bergen-Trondheim\554034-IMG_0635.jpg"><text>554034-IMG_0635.jpg</text></link></trkpt>
	</trkseg>
	<trkseg>
		<trkpt lat="62.24423000" lon="5.11491000"><time>2011-06-26T08:34:40Z</time><link href="F:\PHOTO LOCATIONS\Bergen-Trondheim\554035-IMG_0637.jpg"><text>554035-IMG_0637.jpg</text></link></trkpt>
	</trkseg>
	<trkseg>
		<trkpt lat="62.30783000" lon="5.24750000"><time>2011-06-26T09:31:59Z</time><link href="F:\PHOTO LOCATIONS\Bergen-Trondheim\554036-IMG_0647.JPG"><text>554036-IMG_0647.JPG</text></link></trkpt>
	</trkseg>
	<trkseg>
		<trkpt lat="62.41467000" lon="5.54644000"><time>2011-06-26T11:30:46Z</time><link href="F:\PHOTO LOCATIONS\Bergen-Trondheim\554037-IMG_0656.jpg"><text>554037-IMG_0656.jpg</text></link></trkpt>
	</trkseg></trk>
</gpx>
